Time;durP1;ratioP1;P1;durP2;ratioP2;P2;SDS_P1;SDS_P2;PMS_P1;PMS_P2;Temp;Humidity;BMP_temperature;BMP_pressure;BME280_temperature;BME280_humidity;BME280_pressure;Samples;Min_cycle;Max_cycle;Signal;HPM_P1;HPM_P2
2021/05/10 00:02:09;;;;;;;3.28;2.50;;;20.40;64.80;;;;;;5075259;28;20064;-74
2021/05/10 00:04:35;;;;;;;3.40;2.40;;;20.30;64.90;;;;;;5074325;28;20028;-73
2021/05/10 00:07:00;;;;;;;2.75;2.50;;;20.30;65.00;;;;;;5075323;28;20021;-73
2021/05/10 00:09:27;;;;;;;3.38;2.70;;;20.30;65.10;;;;;;5073809;28;20549;-73
2021/05/10 00:11:52;;;;;;;2.85;2.65;;;20.20;65.00;;;;;;5073823;28;20078;-73
2021/05/10 00:14:27;;;;;;;3.10;2.78;;;20.30;65.10;;;;;;5075015;28;20032;-73
2021/05/10 00:16:53;;;;;;;3.33;3.03;;;20.30;65.80;;;;;;5073703;28;20032;-74
2021/05/10 00:19:19;;;;;;;4.95;2.88;;;20.20;65.20;;;;;;5074957;28;20483;-73
2021/05/10 00:21:44;;;;;;;3.17;2.88;;;20.20;65.30;;;;;;5073505;28;20039;-73
2021/05/10 00:24:10;;;;;;;5.07;3.15;;;20.20;65.50;;;;;;5073610;28;20024;-73
2021/05/10 00:26:35;;;;;;;5.68;3.30;;;20.10;65.50;;;;;;5075355;28;20033;-73
2021/05/10 00:29:01;;;;;;;3.15;2.88;;;20.10;65.50;;;;;;5073561;28;20040;-73
2021/05/10 00:31:28;;;;;;;3.30;2.97;;;20.10;65.50;;;;;;5074531;28;20496;-73
2021/05/10 00:33:53;;;;;;;3.90;3.22;;;20.10;65.50;;;;;;5074792;28;20484;-74
2021/05/10 00:36:19;;;;;;;3.45;3.05;;;20.10;65.60;;;;;;5074623;28;20035;-74
2021/05/10 00:38:45;;;;;;;3.25;2.85;;;20.00;65.60;;;;;;5074616;28;20035;-73
2021/05/10 00:41:11;;;;;;;3.35;3.05;;;20.00;65.70;;;;;;5074447;28;20037;-73
2021/05/10 00:43:37;;;;;;;4.22;2.92;;;20.00;65.70;;;;;;5073631;28;20016;-73
2021/05/10 00:46:02;;;;;;;5.15;3.00;;;20.00;65.80;;;;;;5073036;28;20074;-73
2021/05/10 00:48:28;;;;;;;3.67;3.38;;;20.00;65.80;;;;;;5072974;28;20104;-73
2021/05/10 00:50:54;;;;;;;3.80;3.00;;;20.00;65.80;;;;;;5074464;28;20029;-73
2021/05/10 00:53:19;;;;;;;3.38;3.00;;;20.00;65.90;;;;;;5073024;28;20136;-73
2021/05/10 00:55:45;;;;;;;4.20;2.88;;;20.00;65.90;;;;;;5074711;28;20430;-73
2021/05/10 00:58:11;;;;;;;2.70;2.50;;;20.00;66.00;;;;;;5074766;28;20028;-74
2021/05/10 01:00:38;;;;;;;4.43;2.80;;;20.00;66.00;;;;;;5074127;28;20029;-74
2021/05/10 01:03:04;;;;;;;4.93;2.70;;;20.00;66.00;;;;;;5074246;28;20513;-73
2021/05/10 01:05:31;;;;;;;3.78;3.00;;;20.00;65.90;;;;;;5074039;28;20035;-73
2021/05/10 01:07:56;;;;;;;2.90;2.60;;;20.00;65.90;;;;;;5074057;28;20028;-73
2021/05/10 01:10:25;;;;;;;3.25;2.83;;;20.00;65.90;;;;;;5072646;28;20361;-73
2021/05/10 01:12:52;;;;;;;2.92;2.65;;;20.00;65.90;;;;;;5073980;28;20470;-73
2021/05/10 01:15:20;;;;;;;3.17;2.90;;;20.00;65.90;;;;;;5073938;28;20056;-73
2021/05/10 01:17:48;;;;;;;2.70;2.50;;;19.90;65.90;;;;;;5072670;28;20381;-73
2021/05/10 01:20:15;;;;;;;6.05;4.35;;;19.90;65.90;;;;;;5074280;28;20107;-73
2021/05/10 01:22:44;;;;;;;4.72;3.45;;;19.90;66.00;;;;;;5073977;28;20061;-73
2021/05/10 01:25:13;;;;;;;3.40;3.10;;;19.90;65.90;;;;;;5073804;28;20078;-73
2021/05/10 01:27:40;;;;;;;3.20;2.90;;;19.90;66.00;;;;;;5073708;28;20068;-73
2021/05/10 01:30:09;;;;;;;4.10;3.00;;;19.90;65.90;;;;;;5072222;28;20140;-73
2021/05/10 01:32:35;;;;;;;3.63;2.90;;;19.90;65.90;;;;;;5071826;28;20059;-73
2021/05/10 01:35:04;;;;;;;3.25;2.80;;;19.90;66.00;;;;;;5073639;28;20090;-72
2021/05/10 01:37:29;;;;;;;2.95;2.50;;;19.90;66.00;;;;;;5073591;28;20036;-73
2021/05/10 01:39:55;;;;;;;3.05;2.30;;;19.90;66.10;;;;;;5072279;28;20383;-72
2021/05/10 01:42:21;;;;;;;3.08;2.78;;;19.90;66.10;;;;;;5073377;28;20041;-73
2021/05/10 01:44:46;;;;;;;2.78;2.53;;;19.80;66.10;;;;;;5072123;28;20132;-73
2021/05/10 01:47:12;;;;;;;3.35;2.83;;;19.80;66.20;;;;;;5073314;28;20031;-73
2021/05/10 01:49:37;;;;;;;5.60;3.50;;;19.80;66.20;;;;;;5073407;28;20028;-73
2021/05/10 01:52:03;;;;;;;3.05;2.75;;;19.80;66.30;;;;;;5073841;28;20173;-72
2021/05/10 01:54:29;;;;;;;3.65;2.85;;;19.80;66.40;;;;;;5071952;28;20024;-73
2021/05/10 01:56:55;;;;;;;2.70;2.50;;;19.70;66.40;;;;;;5073687;28;20024;-72
2021/05/10 01:59:20;;;;;;;3.53;2.83;;;19.70;66.50;;;;;;5073315;28;20029;-73
2021/05/10 02:01:47;;;;;;;3.38;2.63;;;19.70;66.60;;;;;;5073102;28;20479;-73
2021/05/10 02:04:12;;;;;;;4.10;2.40;;;19.60;66.80;;;;;;5071806;28;20017;-72
2021/05/10 02:06:38;;;;;;;3.67;2.60;;;19.60;66.90;;;;;;5071770;28;20031;-72
2021/05/10 02:09:04;;;;;;;4.32;2.80;;;19.60;67.00;;;;;;5073057;28;20119;-73
2021/05/10 02:11:30;;;;;;;2.90;2.58;;;19.60;67.10;;;;;;5073037;28;20092;-72
2021/05/10 02:13:56;;;;;;;4.50;2.60;;;19.50;67.10;;;;;;5072948;28;20091;-72
2021/05/10 02:16:22;;;;;;;3.25;2.65;;;19.50;67.20;;;;;;5072986;28;20029;-72
2021/05/10 02:18:48;;;;;;;3.67;2.92;;;19.50;67.20;;;;;;5073313;28;20039;-72
2021/05/10 02:21:14;;;;;;;4.03;2.50;;;19.50;67.20;;;;;;5071579;28;20024;-72
2021/05/10 02:23:39;;;;;;;4.55;2.67;;;19.50;67.20;;;;;;5072853;28;20055;-72
2021/05/10 02:26:07;;;;;;;3.15;2.67;;;19.50;67.10;;;;;;5072824;28;20111;-72
2021/05/10 02:28:33;;;;;;;3.40;2.45;;;19.50;67.00;;;;;;5071556;28;20028;-72
2021/05/10 02:31:01;;;;;;;4.60;2.67;;;19.50;67.00;;;;;;5072779;28;20087;-73
2021/05/10 02:33:33;;;;;;;3.50;2.50;;;19.50;67.00;;;;;;5072882;28;20082;-73
2021/05/10 02:36:00;;;;;;;4.93;2.50;;;19.40;66.90;;;;;;5072776;28;20036;-73
2021/05/10 02:38:26;;;;;;;5.25;2.50;;;19.50;67.00;;;;;;5071478;28;20072;-74
2021/05/10 02:40:53;;;;;;;4.60;2.30;;;19.50;67.20;;;;;;5071407;28;20037;-73
2021/05/10 02:43:20;;;;;;;3.92;2.40;;;19.40;67.90;;;;;;5074902;28;20480;-74
2021/05/10 02:45:46;;;;;;;3.10;2.33;;;19.40;67.50;;;;;;5076936;28;20028;-73
2021/05/10 02:48:13;;;;;;;2.10;1.90;;;19.30;67.50;;;;;;5076774;28;20086;-73
2021/05/10 02:50:39;;;;;;;2.33;1.90;;;19.30;67.40;;;;;;5076726;28;20041;-74
2021/05/10 02:53:04;;;;;;;2.88;2.20;;;19.30;67.20;;;;;;5076487;28;20039;-73
2021/05/10 02:55:30;;;;;;;1.90;1.80;;;19.30;67.10;;;;;;5075318;28;20119;-72
2021/05/10 02:57:56;;;;;;;3.22;1.90;;;19.30;67.00;;;;;;5076639;28;20039;-73
2021/05/10 03:00:27;;;;;;;2.72;2.05;;;19.30;66.90;;;;;;5075249;28;20515;-73
2021/05/10 03:02:55;;;;;;;2.90;2.08;;;19.30;66.80;;;;;;5076883;28;20497;-72
2021/05/10 03:05:21;;;;;;;2.17;1.83;;;19.30;66.80;;;;;;5076521;28;20028;-73
2021/05/10 03:07:47;;;;;;;2.17;1.90;;;19.30;66.80;;;;;;5076330;28;20020;-73
2021/05/10 03:10:15;;;;;;;2.47;1.60;;;19.30;66.70;;;;;;5075035;28;20055;-72
2021/05/10 03:12:42;;;;;;;2.67;1.80;;;19.30;66.60;;;;;;5075476;28;20036;-73
2021/05/10 03:15:09;;;;;;;3.92;1.95;;;19.30;66.60;;;;;;5074901;28;20035;-72
2021/05/10 03:17:36;;;;;;;1.77;1.52;;;19.30;66.70;;;;;;5076107;28;20029;-72
2021/05/10 03:20:04;;;;;;;1.90;1.45;;;19.20;66.70;;;;;;5076246;28;20546;-72
2021/05/10 03:22:31;;;;;;;4.10;1.73;;;19.20;66.80;;;;;;5075939;28;20029;-72
2021/05/10 03:24:57;;;;;;;2.42;1.50;;;19.20;66.70;;;;;;5074836;28;20043;-72
2021/05/10 03:27:23;;;;;;;2.15;1.40;;;19.20;66.60;;;;;;5075935;28;20544;-72
2021/05/10 03:29:49;;;;;;;1.70;1.30;;;19.20;66.30;;;;;;5076011;28;20052;-72
2021/05/10 03:32:14;;;;;;;5.28;1.55;;;19.30;66.10;;;;;;5075925;28;20480;-72
2021/05/10 03:34:40;;;;;;;3.22;1.10;;;19.20;65.90;;;;;;5074570;28;20028;-72
2021/05/10 03:37:05;;;;;;;2.28;1.30;;;19.30;65.70;;;;;;5075875;28;20036;-73
2021/05/10 03:39:31;;;;;;;2.60;1.30;;;19.30;65.50;;;;;;5075733;28;20111;-73
2021/05/10 03:41:56;;;;;;;1.45;1.20;;;19.30;65.40;;;;;;5076222;28;20433;-73
2021/05/10 03:44:22;;;;;;;1.75;1.10;;;19.30;65.10;;;;;;5074457;28;20020;-73
2021/05/10 03:46:48;;;;;;;1.17;0.90;;;19.30;64.90;;;;;;5074461;28;20020;-72
2021/05/10 03:49:13;;;;;;;2.63;1.17;;;19.30;64.70;;;;;;5075650;28;20052;-73
2021/05/10 03:51:42;;;;;;;2.33;0.93;;;19.30;64.50;;;;;;5075685;28;20033;-73
2021/05/10 03:54:08;;;;;;;1.75;1.10;;;19.30;64.30;;;;;;5073368;28;20032;-72
2021/05/10 03:56:33;;;;;;;2.20;1.00;;;19.40;64.30;;;;;;5075713;28;20035;-73
2021/05/10 03:58:59;;;;;;;1.10;1.00;;;19.30;64.20;;;;;;5074104;28;20028;-73
2021/05/10 04:01:25;;;;;;;2.38;1.10;;;19.30;64.10;;;;;;5075213;28;20132;-72
2021/05/10 04:06:44;;;;;;;2.10;1.13;;;19.30;63.60;;;;;;5075258;28;20039;-73
2021/05/10 04:14:13;;;;;;;2.38;0.80;;;19.40;62.50;;;;;;5075451;28;20033;-73
2021/05/10 04:16:39;;;;;;;4.45;0.95;;;19.50;62.20;;;;;;5075009;28;20097;-73
2021/05/10 04:19:04;;;;;;;1.75;1.10;;;19.60;61.70;;;;;;5075115;28;20025;-73
2021/05/10 04:21:30;;;;;;;1.27;0.90;;;19.60;61.40;;;;;;5074939;28;20353;-73
2021/05/10 04:23:55;;;;;;;1.55;0.90;;;19.70;61.10;;;;;;5073714;28;20069;-73
2021/05/10 04:26:21;;;;;;;2.63;0.90;;;19.70;60.90;;;;;;5075189;28;20052;-73
2021/05/10 04:28:46;;;;;;;1.83;0.88;;;19.80;60.70;;;;;;5073666;28;20028;-73
2021/05/10 04:31:12;;;;;;;0.98;0.88;;;19.80;60.30;;;;;;5073486;28;20044;-73
2021/05/10 04:33:38;;;;;;;2.00;1.00;;;19.90;60.10;;;;;;5074759;28;20114;-72
2021/05/10 04:36:04;;;;;;;2.90;0.90;;;19.90;59.80;;;;;;5074832;28;20029;-73
2021/05/10 04:38:29;;;;;;;1.83;0.98;;;19.90;59.40;;;;;;5074660;28;20036;-73
2021/05/10 04:40:56;;;;;;;2.00;1.25;;;20.00;59.30;;;;;;5073292;28;20040;-73
2021/05/10 04:43:25;;;;;;;2.75;0.95;;;20.00;59.10;;;;;;5073269;28;20020;-72
2021/05/10 04:45:51;;;;;;;1.42;0.90;;;20.00;58.90;;;;;;5073231;28;20020;-74
2021/05/10 04:48:17;;;;;;;2.17;0.70;;;20.00;58.70;;;;;;5073076;28;20081;-72
2021/05/10 04:50:42;;;;;;;1.00;0.80;;;20.10;58.60;;;;;;5072931;28;20379;-74
2021/05/10 04:53:12;;;;;;;2.72;0.90;;;20.10;58.40;;;;;;5074257;28;20086;-72
2021/05/10 04:55:39;;;;;;;0.77;0.70;;;20.10;58.10;;;;;;5072960;28;20507;-72
2021/05/10 04:58:05;;;;;;;1.05;0.82;;;20.20;58.00;;;;;;5074178;28;20384;-72
2021/05/10 05:00:31;;;;;;;3.50;1.20;;;20.20;58.00;;;;;;5074071;28;20032;-73
2021/05/10 05:02:56;;;;;;;1.77;1.00;;;20.20;57.70;;;;;;5074256;28;20021;-72
2021/05/10 05:05:22;;;;;;;1.95;1.00;;;20.30;57.50;;;;;;5073985;28;20074;-72
2021/05/10 05:07:48;;;;;;;1.88;0.93;;;20.30;57.60;;;;;;5071648;28;20101;-72
2021/05/10 05:10:14;;;;;;;1.92;0.68;;;20.30;57.70;;;;;;5074001;28;20520;-72
2021/05/10 05:12:40;;;;;;;1.67;1.00;;;20.30;57.80;;;;;;5072697;28;20149;-72
2021/05/10 05:15:07;;;;;;;1.10;0.90;;;20.30;57.80;;;;;;5072609;28;20148;-72
2021/05/10 05:17:34;;;;;;;2.10;1.00;;;20.20;58.30;;;;;;5073996;28;20381;-72
2021/05/10 05:19:59;;;;;;;3.17;1.10;;;20.20;57.70;;;;;;5072566;28;20187;-72
2021/05/10 05:22:25;;;;;;;1.77;1.00;;;20.30;57.80;;;;;;5073763;28;20100;-73
2021/05/10 05:24:51;;;;;;;1.50;1.15;;;20.20;57.80;;;;;;5072489;28;20473;-73
2021/05/10 05:27:22;;;;;;;3.08;1.02;;;20.20;57.90;;;;;;5105618;27;776998;-72
2021/05/10 05:29:48;;;;;;;1.45;1.00;;;20.30;58.20;;;;;;5092434;28;20495;-72
2021/05/10 05:32:14;;;;;;;3.22;1.15;;;20.30;58.20;;;;;;5110652;28;20126;-72
2021/05/10 05:34:39;;;;;;;3.47;1.15;;;20.20;58.90;;;;;;5110635;28;20108;-72
2021/05/10 05:37:05;;;;;;;3.00;1.00;;;20.20;58.50;;;;;;5110608;28;20035;-72
2021/05/10 05:39:31;;;;;;;2.25;1.00;;;20.20;58.70;;;;;;5110597;28;20055;-72
2021/05/10 05:41:56;;;;;;;2.80;0.90;;;20.20;58.80;;;;;;5092131;28;20073;-71
2021/05/10 05:44:22;;;;;;;2.92;0.98;;;20.10;59.00;;;;;;5110825;28;20028;-73
2021/05/10 05:46:49;;;;;;;3.70;0.90;;;20.10;59.20;;;;;;5091872;28;20039;-73
2021/05/10 05:49:16;;;;;;;2.85;1.02;;;20.10;59.40;;;;;;5091819;28;20024;-73
2021/05/10 05:51:46;;;;;;;3.05;0.90;;;20.00;59.60;;;;;;5092058;28;20034;-73
2021/05/10 05:54:13;;;;;;;1.40;0.70;;;20.00;59.80;;;;;;5091571;28;20499;-73
2021/05/10 05:56:38;;;;;;;1.52;0.80;;;20.00;60.00;;;;;;5091616;28;20035;-72
2021/05/10 05:59:04;;;;;;;1.00;0.73;;;20.00;60.30;;;;;;5109974;28;20032;-73
2021/05/10 06:01:30;;;;;;;0.60;0.60;;;19.90;60.50;;;;;;5109938;28;20127;-73
2021/05/10 06:03:56;;;;;;;1.45;0.60;;;19.90;60.80;;;;;;5091686;28;20180;-75
2021/05/10 06:06:22;;;;;;;1.85;0.73;;;19.80;61.00;;;;;;5091280;28;20107;-73
2021/05/10 06:08:48;;;;;;;1.02;0.55;;;19.80;61.10;;;;;;5096627;28;20061;-73
2021/05/10 06:11:14;;;;;;;1.80;0.80;;;19.80;61.20;;;;;;5071318;28;20132;-73
2021/05/10 06:13:40;;;;;;;1.13;0.73;;;19.80;61.20;;;;;;5089501;28;20506;-73
2021/05/10 06:16:06;;;;;;;3.13;0.98;;;19.80;61.10;;;;;;5071148;28;20067;-74
2021/05/10 06:18:32;;;;;;;2.17;0.90;;;19.90;61.10;;;;;;5089323;28;20089;-74
2021/05/10 06:21:03;;;;;;;1.45;0.70;;;19.90;61.10;;;;;;5089423;28;20062;-74
2021/05/10 06:23:29;;;;;;;2.67;0.80;;;19.90;61.20;;;;;;5089319;28;20442;-73
2021/05/10 06:25:55;;;;;;;1.00;0.70;;;20.00;61.30;;;;;;5070758;28;20488;-74
2021/05/10 06:28:21;;;;;;;0.70;0.70;;;20.00;61.40;;;;;;5070971;28;20020;-74
2021/05/10 06:30:47;;;;;;;3.78;0.80;;;19.90;61.40;;;;;;5070990;28;20032;-72
2021/05/10 06:33:13;;;;;;;2.10;0.68;;;19.90;61.40;;;;;;5088744;28;20112;-73
2021/05/10 06:35:39;;;;;;;1.63;0.50;;;19.90;61.30;;;;;;5089079;28;20155;-72
2021/05/10 06:38:05;;;;;;;2.60;0.60;;;19.90;61.20;;;;;;5079176;28;20036;-73
2021/05/10 06:40:30;;;;;;;0.73;0.45;;;19.80;61.00;;;;;;5075407;28;20044;-79
2021/05/10 06:42:56;;;;;;;0.50;0.50;;;19.70;61.30;;;;;;5057491;28;20115;-74
2021/05/10 06:45:22;;;;;;;0.68;0.35;;;19.70;61.40;;;;;;5057482;28;20032;-74
2021/05/10 06:47:48;;;;;;;1.15;0.50;;;19.60;61.50;;;;;;5075236;28;20028;-74
2021/05/10 06:50:14;;;;;;;0.25;0.25;;;19.60;61.50;;;;;;5057084;28;20033;-74
2021/05/10 06:52:40;;;;;;;0.30;0.30;;;19.60;61.50;;;;;;5074999;28;20021;-75
2021/05/10 06:55:07;;;;;;;0.52;0.40;;;19.60;61.60;;;;;;5075169;28;20427;-75
2021/05/10 06:57:33;;;;;;;0.85;0.25;;;19.70;61.50;;;;;;5057263;28;20453;-74
2021/05/10 06:59:59;;;;;;;0.52;0.28;;;19.70;61.30;;;;;;5075057;28;20067;-75
2021/05/10 07:03:05;;;;;;;0.75;0.30;;;19.70;61.10;;;;;;5075008;28;20021;-74
2021/05/10 07:05:30;;;;;;;1.33;0.30;;;19.80;60.90;;;;;;5075343;28;20037;-73
2021/05/10 07:07:56;;;;;;;0.38;0.38;;;19.80;60.70;;;;;;5056800;28;20539;-73
2021/05/10 07:10:21;;;;;;;1.23;0.30;;;19.90;60.60;;;;;;5056740;28;20415;-73
2021/05/10 07:12:47;;;;;;;0.85;0.30;;;20.00;60.50;;;;;;5075043;28;20036;-73
2021/05/10 07:15:13;;;;;;;0.52;0.30;;;20.10;61.10;;;;;;5056647;28;20056;-77
2021/05/10 07:17:38;;;;;;;0.63;0.43;;;20.20;60.40;;;;;;5056734;28;20027;-77
2021/05/10 07:20:05;;;;;;;0.40;0.40;;;20.20;60.20;;;;;;5056780;28;20040;-74
2021/05/10 07:22:30;;;;;;;0.50;0.50;;;20.20;60.20;;;;;;5074574;28;20029;-73
2021/05/10 07:24:56;;;;;;;1.02;0.77;;;20.20;60.20;;;;;;5074575;28;20361;-75
2021/05/10 07:27:22;;;;;;;2.10;0.73;;;20.20;60.20;;;;;;5074321;28;20119;-74
2021/05/10 07:29:47;;;;;;;1.00;0.40;;;20.20;60.20;;;;;;5056490;28;20029;-75
2021/05/10 07:32:13;;;;;;;0.57;0.52;;;20.30;60.00;;;;;;5074292;28;20354;-74
2021/05/10 07:34:39;;;;;;;2.58;0.98;;;20.40;59.70;;;;;;5074665;28;20100;-73
2021/05/10 07:37:04;;;;;;;1.20;0.70;;;20.50;59.50;;;;;;5074364;28;20035;-73
2021/05/10 07:39:30;;;;;;;1.15;0.60;;;20.30;59.30;;;;;;5074296;28;20124;-74
2021/05/10 07:41:55;;;;;;;1.63;0.63;;;20.40;59.40;;;;;;5056180;28;20055;-74
2021/05/10 07:44:21;;;;;;;0.70;0.60;;;20.40;59.30;;;;;;5074344;28;20051;-73
2021/05/10 07:46:47;;;;;;;1.83;0.70;;;20.40;59.20;;;;;;5056043;28;20029;-73
2021/05/10 07:49:12;;;;;;;1.30;0.90;;;20.50;59.10;;;;;;5073193;28;20067;-73
2021/05/10 07:51:38;;;;;;;0.80;0.70;;;20.50;59.00;;;;;;5056163;28;20094;-73
2021/05/10 07:54:03;;;;;;;1.25;0.63;;;20.50;59.10;;;;;;5056099;28;20472;-73
2021/05/10 07:56:30;;;;;;;1.73;1.10;;;20.50;59.10;;;;;;5055956;28;20035;-75
2021/05/10 07:58:58;;;;;;;1.92;1.00;;;20.50;59.20;;;;;;5073894;28;20388;-76
2021/05/10 08:01:24;;;;;;;1.95;0.95;;;20.50;59.40;;;;;;5055945;28;20115;-75
2021/05/10 08:03:49;;;;;;;0.70;0.70;;;20.40;59.40;;;;;;5055904;28;20125;-74
2021/05/10 08:06:16;;;;;;;1.40;0.80;;;20.30;59.60;;;;;;5073619;28;20071;-76
2021/05/10 08:08:41;;;;;;;1.27;0.88;;;20.20;59.80;;;;;;5073704;28;20081;-74
2021/05/10 08:11:07;;;;;;;1.98;1.17;;;20.10;60.00;;;;;;5073610;28;20095;-75
2021/05/10 08:13:33;;;;;;;2.38;1.00;;;20.10;60.10;;;;;;5055630;28;20027;-75
2021/05/10 08:15:59;;;;;;;2.05;0.90;;;20.10;60.20;;;;;;5073820;28;20103;-75
2021/05/10 08:18:25;;;;;;;2.08;0.98;;;20.10;60.30;;;;;;5073303;28;20103;-75
2021/05/10 08:20:53;;;;;;;1.73;0.90;;;20.00;60.40;;;;;;5073302;28;20043;-75
2021/05/10 08:23:18;;;;;;;2.03;0.70;;;19.90;60.50;;;;;;5073309;28;20495;-75
2021/05/10 08:25:44;;;;;;;1.38;0.80;;;19.80;60.70;;;;;;5073090;28;20049;-75
2021/05/10 08:28:10;;;;;;;1.20;0.90;;;19.90;60.90;;;;;;5073143;28;20430;-75
2021/05/10 08:30:36;;;;;;;2.97;0.80;;;19.90;61.00;;;;;;5055135;28;20494;-75
2021/05/10 08:33:02;;;;;;;0.85;0.80;;;20.00;61.00;;;;;;5054938;28;20056;-75
2021/05/10 08:35:28;;;;;;;1.63;1.13;;;20.00;61.00;;;;;;5055147;28;20066;-75
2021/05/10 08:37:54;;;;;;;1.83;1.00;;;20.10;60.90;;;;;;5073120;28;20540;-75
2021/05/10 08:40:19;;;;;;;1.00;0.90;;;20.10;60.90;;;;;;5073028;28;20032;-75
2021/05/10 08:42:45;;;;;;;1.02;0.65;;;20.00;61.00;;;;;;5055078;28;20063;-75
2021/05/10 08:45:19;;;;;;;2.15;0.80;;;19.90;61.30;;;;;;5072841;28;20036;-74
2021/05/10 08:47:45;;;;;;;1.55;1.10;;;19.80;62.60;;;;;;5054982;28;20032;-74
2021/05/10 08:50:12;;;;;;;1.42;1.05;;;19.50;64.20;;;;;;5073003;28;20024;-74
2021/05/10 08:52:37;;;;;;;1.10;1.00;;;19.30;65.30;;;;;;5072844;28;20031;-74
2021/05/10 08:55:04;;;;;;;1.55;0.73;;;19.10;66.00;;;;;;5072957;28;20021;-74
2021/05/10 08:57:30;;;;;;;1.58;0.82;;;19.10;66.50;;;;;;5055042;28;20032;-75
2021/05/10 08:59:56;;;;;;;1.77;0.80;;;19.20;66.50;;;;;;5055209;28;20028;-77
2021/05/10 09:02:32;;;;;;;1.02;0.90;;;19.30;66.40;;;;;;5055498;28;20029;-77
2021/05/10 09:05:22;;;;;;;2.47;0.80;;;19.30;66.40;;;;;;5073213;28;20410;-77
2021/05/10 09:08:07;;;;;;;1.30;0.77;;;19.40;66.30;;;;;;5073429;28;20035;-78
2021/05/10 09:10:33;;;;;;;1.35;0.90;;;19.40;66.10;;;;;;5055189;28;20025;-78
2021/05/10 09:12:59;;;;;;;1.75;1.00;;;19.30;66.00;;;;;;5054951;28;20495;-78
2021/05/10 09:15:29;;;;;;;0.60;0.60;;;19.30;65.60;;;;;;5073372;28;20333;-79
2021/05/10 09:17:56;;;;;;;1.48;1.00;;;19.30;65.30;;;;;;5055766;28;20445;-76
2021/05/10 09:20:24;;;;;;;1.50;1.00;;;19.40;64.80;;;;;;5073009;28;20434;-76
2021/05/10 09:22:55;;;;;;;0.60;0.60;;;19.40;64.50;;;;;;5054734;28;20060;-76
2021/05/10 09:25:35;;;;;;;1.30;0.90;;;19.40;64.30;;;;;;5072576;28;20039;-76
2021/05/10 09:28:16;;;;;;;1.08;1.00;;;19.30;64.10;;;;;;5072808;28;20095;-76
2021/05/10 09:30:44;;;;;;;2.38;1.25;;;19.40;64.10;;;;;;5072648;28;20033;-75
2021/05/10 09:33:30;;;;;;;1.55;1.30;;;19.40;64.10;;;;;;5054610;28;20055;-75
2021/05/10 09:36:06;;;;;;;2.40;1.55;;;19.40;64.30;;;;;;5054641;28;20084;-74
2021/05/10 09:38:36;;;;;;;2.15;1.33;;;19.50;63.60;;;;;;5072735;28;20029;-75
2021/05/10 09:41:04;;;;;;;1.20;1.10;;;19.50;63.40;;;;;;5054649;28;20078;-75
2021/05/10 09:43:35;;;;;;;2.40;0.98;;;19.60;63.20;;;;;;5072871;28;20428;-75
2021/05/10 09:46:10;;;;;;;1.30;1.00;;;19.70;63.10;;;;;;5072612;28;20032;-75
2021/05/10 09:48:39;;;;;;;1.13;1.10;;;19.70;63.00;;;;;;5054819;28;20067;-75
2021/05/10 09:51:09;;;;;;;1.15;1.00;;;19.80;62.60;;;;;;5072851;28;20017;-75
2021/05/10 09:53:38;;;;;;;1.25;1.00;;;19.90;62.50;;;;;;5055342;28;20039;-75
2021/05/10 09:58:51;;;;;;;1.73;1.15;;;20.10;62.10;;;;;;5072202;28;20037;-75
2021/05/10 10:01:17;;;;;;;1.60;0.90;;;20.00;62.00;;;;;;5072390;28;20535;-76
2021/05/10 10:03:44;;;;;;;1.85;1.10;;;20.00;62.00;;;;;;5073257;28;20044;-75
2021/05/10 10:06:15;;;;;;;1.40;0.80;;;20.00;62.10;;;;;;5054410;28;20151;-74
2021/05/10 10:08:43;;;;;;;1.90;1.05;;;20.00;62.10;;;;;;5054757;28;20480;-75
2021/05/10 10:11:13;;;;;;;1.13;1.02;;;20.00;62.10;;;;;;5054137;28;20016;-75
2021/05/10 10:13:39;;;;;;;1.45;0.90;;;20.00;62.00;;;;;;5057279;28;20035;-74
2021/05/10 10:16:07;;;;;;;1.67;1.00;;;20.10;62.10;;;;;;5058171;28;20528;-77
2021/05/10 10:18:39;;;;;;;1.88;1.50;;;20.10;62.20;;;;;;5058268;28;20155;-74
2021/05/10 10:21:06;;;;;;;3.15;2.15;;;20.00;62.20;;;;;;5058186;28;20044;-76
2021/05/10 10:23:33;;;;;;;1.92;1.50;;;20.00;62.40;;;;;;5075963;28;20061;-75
2021/05/10 10:26:00;;;;;;;2.95;1.27;;;19.90;62.60;;;;;;5057796;28;20371;-75
2021/05/10 10:28:28;;;;;;;2.45;1.25;;;19.90;62.80;;;;;;5076272;28;20032;-76
2021/05/10 10:30:58;;;;;;;1.15;1.00;;;19.80;62.90;;;;;;5058062;28;20103;-78
2021/05/10 10:33:54;;;;;;;1.23;1.13;;;19.80;63.00;;;;;;5076171;28;20103;-77
2021/05/10 10:36:23;;;;;;;1.20;1.10;;;19.80;63.20;;;;;;5073382;28;20045;-75
2021/05/10 10:39:20;;;;;;;1.63;1.48;;;19.80;63.30;;;;;;5057505;28;20033;-76
2021/05/10 10:41:59;;;;;;;1.80;1.33;;;19.60;63.30;;;;;;5057488;28;20406;-76
2021/05/10 10:44:47;;;;;;;1.60;1.50;;;19.40;63.80;;;;;;5057586;28;20036;-76
2021/05/10 10:47:36;;;;;;;3.05;1.60;;;19.30;64.40;;;;;;5057393;28;20041;-76
2021/05/10 10:50:02;;;;;;;2.03;1.67;;;19.10;64.80;;;;;;5057360;28;20055;-76
2021/05/10 10:52:31;;;;;;;2.22;1.80;;;19.00;65.20;;;;;;5075266;28;20383;-76
2021/05/10 10:55:14;;;;;;;3.65;1.40;;;19.00;65.60;;;;;;5075153;28;20028;-76
2021/05/10 10:57:40;;;;;;;2.38;1.80;;;18.90;65.80;;;;;;5075156;28;20056;-76
2021/05/10 11:00:07;;;;;;;2.00;1.83;;;18.90;66.00;;;;;;5075561;28;20207;-76
2021/05/10 11:02:47;;;;;;;2.33;1.80;;;18.80;66.30;;;;;;5075067;28;20028;-76
2021/05/10 11:05:19;;;;;;;2.60;1.70;;;18.80;66.60;;;;;;5056861;28;20033;-75
2021/05/10 11:07:57;;;;;;;3.33;1.85;;;18.80;66.70;;;;;;5056833;28;20418;-75
2021/05/10 11:10:54;;;;;;;1.83;1.73;;;18.90;66.70;;;;;;5057057;28;20086;-75
2021/05/10 11:13:26;;;;;;;1.73;1.63;;;18.90;67.10;;;;;;5056758;28;20043;-76
2021/05/10 11:15:52;;;;;;;2.13;1.77;;;18.90;67.60;;;;;;5056718;28;20028;-75
2021/05/10 11:18:37;;;;;;;2.10;1.90;;;18.90;67.60;;;;;;5056823;28;20029;-75
2021/05/10 11:21:22;;;;;;;2.30;1.65;;;19.10;67.80;;;;;;5074640;28;20036;-75
2021/05/10 11:23:50;;;;;;;3.95;1.75;;;19.10;67.70;;;;;;5056481;28;20120;-74
2021/05/10 11:26:38;;;;;;;3.00;1.90;;;19.10;67.70;;;;;;5056539;28;20127;-74
2021/05/10 11:29:09;;;;;;;2.63;2.30;;;18.80;68.30;;;;;;5056368;28;20037;-74
2021/05/10 11:31:42;;;;;;;3.40;2.38;;;18.50;69.40;;;;;;5056366;28;20070;-74
2021/05/10 11:34:11;;;;;;;3.28;2.22;;;18.30;69.80;;;;;;5074311;28;20017;-75
2021/05/10 11:36:50;;;;;;;2.45;2.15;;;18.10;70.20;;;;;;5056250;28;20032;-75
2021/05/10 11:39:23;;;;;;;2.55;2.33;;;18.00;70.70;;;;;;5056340;28;20455;-75
2021/05/10 11:41:50;;;;;;;3.13;2.28;;;17.80;71.00;;;;;;5074201;28;20024;-74
2021/05/10 11:44:26;;;;;;;3.25;1.90;;;17.80;71.40;;;;;;5053318;28;20033;-75
2021/05/10 11:46:56;;;;;;;2.38;1.85;;;17.60;71.90;;;;;;5074082;28;20108;-74
2021/05/10 11:49:29;;;;;;;1.75;1.60;;;17.40;72.10;;;;;;5056414;28;20024;-75
2021/05/10 11:51:58;;;;;;;2.03;1.92;;;17.30;72.30;;;;;;5056010;28;20388;-74
2021/05/10 11:54:25;;;;;;;1.73;1.63;;;17.20;72.70;;;;;;5056022;28;20020;-74
2021/05/10 11:56:52;;;;;;;2.90;1.55;;;17.10;72.90;;;;;;5055954;28;20028;-74
2021/05/10 12:01:59;;;;;;;1.45;1.35;;;17.30;72.80;;;;;;5074065;28;20392;-74
2021/05/10 12:04:30;;;;;;;1.48;1.38;;;17.50;72.60;;;;;;5073919;28;20025;-74
2021/05/10 12:06:57;;;;;;;2.38;1.50;;;17.60;72.50;;;;;;5074315;28;20036;-75
2021/05/10 12:09:41;;;;;;;2.63;1.48;;;17.80;72.20;;;;;;5056130;28;20476;-76
2021/05/10 12:12:12;;;;;;;1.40;1.30;;;18.00;72.50;;;;;;5074128;28;20427;-75
2021/05/10 12:14:38;;;;;;;1.52;1.40;;;18.30;71.30;;;;;;5055989;28;20040;-75
2021/05/10 12:17:12;;;;;;;1.70;1.60;;;18.50;71.70;;;;;;5073805;28;20453;-75
2021/05/10 12:19:48;;;;;;;1.50;1.40;;;18.60;70.90;;;;;;5073806;28;20044;-75
2021/05/10 12:22:14;;;;;;;2.05;1.42;;;18.70;70.80;;;;;;5056114;28;20387;-75
2021/05/10 12:25:08;;;;;;;1.80;1.70;;;18.80;70.70;;;;;;5074230;28;20083;-76
2021/05/10 12:27:38;;;;;;;2.17;1.80;;;19.00;70.20;;;;;;5073562;28;20053;-76
2021/05/10 12:30:24;;;;;;;2.55;1.70;;;19.10;70.40;;;;;;5055668;28;20045;-75
2021/05/10 12:32:55;;;;;;;2.78;1.90;;;19.20;70.10;;;;;;5073536;28;20025;-75
2021/05/10 12:35:23;;;;;;;2.00;1.80;;;19.10;69.80;;;;;;5073091;28;20480;-75
2021/05/10 12:37:52;;;;;;;1.73;1.60;;;19.10;70.00;;;;;;5055494;28;20024;-76
2021/05/10 12:40:20;;;;;;;1.95;1.80;;;19.10;70.00;;;;;;5055563;28;20037;-75
2021/05/10 12:43:09;;;;;;;2.22;1.90;;;19.20;69.80;;;;;;5055359;28;20487;-75
2021/05/10 12:45:36;;;;;;;2.28;1.90;;;19.20;69.80;;;;;;5055443;28;20025;-76
2021/05/10 12:48:15;;;;;;;1.95;1.67;;;19.20;69.80;;;;;;5073379;28;20020;-74
2021/05/10 12:50:43;;;;;;;2.00;1.80;;;19.50;69.60;;;;;;5073339;28;20039;-76
2021/05/10 12:53:09;;;;;;;2.03;1.85;;;19.60;68.90;;;;;;5055310;28;20035;-76
2021/05/10 12:55:37;;;;;;;2.20;1.70;;;19.70;68.70;;;;;;5055650;28;20112;-76
2021/05/10 12:58:23;;;;;;;1.88;1.75;;;19.80;68.30;;;;;;5055111;28;20040;-76
2021/05/10 13:00:51;;;;;;;1.98;1.70;;;20.00;68.00;;;;;;5073104;28;20043;-76
2021/05/10 13:03:36;;;;;;;2.30;1.90;;;20.10;67.70;;;;;;5055014;28;20024;-76
2021/05/10 13:09:25;;;;;;;3.88;1.90;;;20.40;66.90;;;;;;5073105;28;20128;-76
2021/05/10 13:11:55;;;;;;;1.95;1.80;;;20.50;66.60;;;;;;5055014;28;20119;-76